Time;durP1;ratioP1;P1;durP2;ratioP2;P2;SDS_P1;SDS_P2;PMS_P1;PMS_P2;Temp;Humidity;BMP_temperature;BMP_pressure;BME280_temperature;BME280_humidity;BME280_pressure;Samples;Min_cycle;Max_cycle;Signal;HPM_P1;HPM_P2
2021/06/03 00:00:49;;;;;;;2.97;2.17;;;;;;;15.46;47.84;101698.38;5084425;28;20028;-71
2021/06/03 00:03:15;;;;;;;4.43;2.63;;;;;;;15.24;48.39;101702.03;5084151;28;20044;-73
2021/06/03 00:05:50;;;;;;;4.55;3.10;;;;;;;15.33;48.10;101701.09;5083863;28;20028;-73
2021/06/03 00:08:17;;;;;;;4.32;2.22;;;;;;;15.41;47.76;101692.31;5082701;28;20456;-71
2021/06/03 00:10:53;;;;;;;4.15;2.65;;;;;;;15.27;48.08;101697.66;5083833;28;20021;-74
2021/06/03 00:13:20;;;;;;;6.13;2.95;;;;;;;15.06;48.43;101689.94;5084126;28;20088;-71
2021/06/03 00:15:47;;;;;;;4.35;2.70;;;;;;;15.06;48.38;101694.31;5082709;28;20048;-72
2021/06/03 00:18:12;;;;;;;5.00;2.45;;;;;;;15.19;47.78;101682.00;5082486;28;20017;-73
2021/06/03 00:20:38;;;;;;;4.60;3.08;;;;;;;15.15;47.55;101680.28;5083463;28;20063;-73
2021/06/03 00:23:04;;;;;;;6.10;2.80;;;;;;;15.11;47.64;101676.84;5082131;28;20028;-72
2021/06/03 00:25:31;;;;;;;5.68;2.63;;;;;;;15.15;47.29;101685.50;5083705;28;20032;-73
2021/06/03 00:27:57;;;;;;;3.13;2.40;;;;;;;15.28;46.51;101679.31;5083781;28;20020;-72
2021/06/03 00:30:22;;;;;;;4.13;2.88;;;;;;;15.05;47.03;101682.13;5083601;28;20023;-70
2021/06/03 00:32:49;;;;;;;2.83;2.03;;;;;;;15.08;46.63;101688.19;5083623;28;20051;-69
2021/06/03 00:35:14;;;;;;;5.50;2.38;;;;;;;14.87;47.06;101690.03;5083137;28;20035;-73
2021/06/03 00:37:40;;;;;;;3.45;2.17;;;;;;;15.00;46.51;101687.34;5083561;28;20021;-73
2021/06/03 00:40:08;;;;;;;5.22;1.95;;;;;;;15.07;46.01;101690.81;5082091;28;20029;-71
2021/06/03 00:42:34;;;;;;;4.15;3.00;;;;;;;14.85;46.51;101694.44;5083586;28;20027;-71
2021/06/03 00:44:59;;;;;;;6.43;2.42;;;;;;;14.85;46.17;101691.81;5083288;28;20028;-73
2021/06/03 00:47:24;;;;;;;5.82;2.10;;;;;;;14.88;46.16;101690.94;5083543;28;20095;-69
2021/06/03 00:49:50;;;;;;;11.35;2.63;;;;;;;15.00;45.49;101682.13;5082993;28;20096;-69
2021/06/03 00:52:15;;;;;;;4.03;2.90;;;;;;;14.82;45.80;101691.84;5083315;28;20251;-73
2021/06/03 00:54:41;;;;;;;2.85;2.25;;;;;;;14.86;45.66;101685.72;5083411;28;20028;-72
2021/06/03 00:57:06;;;;;;;5.32;3.08;;;;;;;14.79;45.51;101686.59;5082948;28;20059;-71
2021/06/03 00:59:32;;;;;;;5.25;2.38;;;;;;;14.72;45.48;101690.09;5083039;28;20453;-69
2021/06/03 01:01:57;;;;;;;5.30;2.95;;;;;;;14.42;45.96;101676.31;5083140;28;20028;-72
2021/06/03 01:04:23;;;;;;;3.65;2.20;;;;;;;14.65;45.44;101686.66;5082761;28;20116;-70
2021/06/03 01:06:48;;;;;;;3.15;2.60;;;;;;;14.79;44.80;101691.81;5083044;28;20051;-73
2021/06/03 01:09:28;;;;;;;2.95;2.35;;;;;;;14.61;45.23;101691.03;5082911;28;20025;-70
2021/06/03 01:12:18;;;;;;;5.50;2.83;;;;;;;14.51;45.55;101684.09;5083423;28;20396;-73
2021/06/03 01:14:49;;;;;;;2.58;1.90;;;;;;;14.64;44.80;101679.69;5083256;28;20024;-72
2021/06/03 01:17:18;;;;;;;6.53;2.67;;;;;;;14.43;45.11;101673.69;5083262;28;20031;-71
2021/06/03 01:19:45;;;;;;;1.77;1.25;;;;;;;14.55;44.86;101674.50;5082550;28;20078;-70
2021/06/03 01:22:15;;;;;;;5.90;2.60;;;;;;;14.25;45.75;101678.09;5083079;28;20031;-71
2021/06/03 01:24:46;;;;;;;4.30;2.63;;;;;;;14.31;45.25;101687.69;5083120;28;20112;-74
2021/06/03 01:27:17;;;;;;;3.05;2.28;;;;;;;14.53;44.72;101682.38;5082963;28;20031;-69
2021/06/03 01:29:52;;;;;;;3.67;2.60;;;;;;;14.44;45.02;101682.41;5082938;28;20017;-72
2021/06/03 01:32:19;;;;;;;5.68;2.83;;;;;;;14.54;44.75;101685.81;5082990;28;20044;-73
2021/06/03 01:34:45;;;;;;;3.33;2.85;;;;;;;14.43;45.16;101680.66;5082772;28;20029;-70
2021/06/03 01:37:11;;;;;;;3.25;2.28;;;;;;;14.34;45.30;101678.94;5082929;28;20036;-72
2021/06/03 01:39:41;;;;;;;4.53;2.45;;;;;;;14.44;45.04;101678.03;5082781;28;20039;-71
2021/06/03 01:42:07;;;;;;;7.18;2.75;;;;;;;14.21;45.77;101683.34;5082788;28;20032;-73
2021/06/03 01:44:33;;;;;;;3.42;2.72;;;;;;;14.29;45.68;101683.31;5081540;28;20329;-70
2021/06/03 01:46:59;;;;;;;4.35;2.80;;;;;;;14.27;45.80;101685.06;5082735;28;20136;-73
2021/06/03 01:49:25;;;;;;;4.05;2.75;;;;;;;14.17;46.30;101682.47;5082184;28;20079;-73
2021/06/03 01:51:51;;;;;;;3.90;2.15;;;;;;;14.10;46.60;101676.44;5082734;28;20465;-71
2021/06/03 01:54:18;;;;;;;6.25;2.60;;;;;;;14.31;46.08;101677.22;5082803;28;20055;-71
2021/06/03 01:56:45;;;;;;;4.28;2.67;;;;;;;14.23;46.15;101679.84;5082743;28;20048;-75
2021/06/03 01:59:11;;;;;;;3.95;3.25;;;;;;;13.97;47.08;101679.94;5082604;28;20040;-74
2021/06/03 02:01:36;;;;;;;3.17;2.35;;;;;;;14.07;46.78;101679.06;5082488;28;20329;-70
2021/06/03 02:04:02;;;;;;;6.30;2.58;;;;;;;14.03;46.72;101677.31;5082619;28;20395;-70
2021/06/03 02:06:27;;;;;;;5.93;2.67;;;;;;;14.29;45.87;101683.31;5082398;28;20488;-73
2021/06/03 02:08:53;;;;;;;4.45;2.72;;;;;;;14.07;46.38;101689.50;5082554;28;20024;-70
2021/06/03 02:11:19;;;;;;;5.88;2.95;;;;;;;13.87;46.92;101686.91;5082581;28;20021;-72
2021/06/03 02:13:49;;;;;;;2.92;2.40;;;;;;;13.76;46.96;101684.31;5081044;28;20017;-72
2021/06/03 02:16:20;;;;;;;5.03;2.05;;;;;;;14.01;46.33;101684.25;5082659;28;20423;-72
2021/06/03 02:18:50;;;;;;;5.95;2.60;;;;;;;13.97;45.99;101677.31;5086002;28;20040;-72
2021/06/03 02:21:16;;;;;;;3.28;2.67;;;;;;;13.86;46.28;101679.94;5086003;28;20173;-71
2021/06/03 02:23:43;;;;;;;4.97;2.65;;;;;;;13.77;46.34;101675.59;5086606;28;20017;-72
2021/06/03 02:26:09;;;;;;;6.88;2.92;;;;;;;13.88;45.94;101686.91;5086064;28;20108;-72
2021/06/03 02:28:35;;;;;;;2.85;1.55;;;;;;;13.91;46.03;101682.56;5086106;28;20027;-73
2021/06/03 02:31:01;;;;;;;4.18;2.65;;;;;;;13.71;46.38;101691.25;5085652;28;20020;-72
2021/06/03 02:33:28;;;;;;;6.32;2.60;;;;;;;13.82;46.04;101686.03;5086064;28;20099;-70
2021/06/03 02:35:54;;;;;;;3.30;2.47;;;;;;;13.79;46.06;101679.09;5085495;28;20500;-70
2021/06/03 02:38:27;;;;;;;3.55;2.10;;;;;;;13.70;46.31;101686.94;5084487;28;20165;-70
2021/06/03 02:40:58;;;;;;;3.45;2.42;;;;;;;13.81;45.90;101692.13;5085625;28;20297;-72
2021/06/03 02:43:24;;;;;;;4.90;2.88;;;;;;;13.57;46.55;101684.34;5085784;28;20074;-72
2021/06/03 02:45:55;;;;;;;3.78;2.60;;;;;;;13.83;45.81;101688.66;5085701;28;20029;-71
2021/06/03 02:48:21;;;;;;;4.70;2.85;;;;;;;13.77;45.88;101688.66;5085618;28;20048;-73
2021/06/03 02:50:47;;;;;;;6.65;3.00;;;;;;;13.71;46.07;101686.03;5085014;28;20028;-74
2021/06/03 02:53:13;;;;;;;5.10;3.03;;;;;;;13.77;45.88;101693.88;5085450;28;20047;-73
2021/06/03 02:55:40;;;;;;;5.25;3.03;;;;;;;13.73;45.97;101689.53;5084062;28;20040;-73
2021/06/03 02:58:06;;;;;;;3.50;2.60;;;;;;;13.51;46.63;101685.19;5083789;28;20485;-71
2021/06/03 03:00:34;;;;;;;3.42;2.28;;;;;;;13.70;46.28;101689.53;5085144;28;20036;-69
2021/06/03 03:03:01;;;;;;;3.53;2.33;;;;;;;14.20;44.31;101679.00;5085406;28;20027;-67
2021/06/03 03:05:26;;;;;;;6.50;2.33;;;;;;;13.99;45.37;101691.25;5083606;28;20416;-74
2021/06/03 03:07:52;;;;;;;3.38;2.33;;;;;;;13.86;45.95;101693.88;5085315;28;20027;-73
2021/06/03 03:10:28;;;;;;;4.85;2.60;;;;;;;14.04;45.74;101694.69;5085065;28;20055;-74
2021/06/03 03:12:54;;;;;;;5.07;3.10;;;;;;;14.29;45.16;101702.47;5085288;28;20020;-73
2021/06/03 03:15:20;;;;;;;4.72;2.75;;;;;;;14.50;44.82;101711.13;5085209;28;20032;-73
2021/06/03 03:17:46;;;;;;;4.05;2.70;;;;;;;14.86;43.33;101698.78;5085035;28;20028;-73
2021/06/03 03:20:14;;;;;;;7.85;2.40;;;;;;;14.85;43.43;101686.59;5083157;28;20020;-73
2021/06/03 03:22:40;;;;;;;4.68;2.40;;;;;;;15.05;42.95;101690.81;5085003;28;20354;-72
2021/06/03 03:25:10;;;;;;;2.22;1.90;;;;;;;15.39;41.78;101697.56;5084858;28;20024;-73
2021/06/03 03:27:40;;;;;;;4.32;2.03;;;;;;;15.32;41.77;101685.41;5084748;28;20028;-73
2021/06/03 03:30:07;;;;;;;3.28;2.47;;;;;;;15.46;41.66;101699.22;5084656;28;20029;-69
2021/06/03 03:32:33;;;;;;;4.22;2.88;;;;;;;15.49;41.50;101696.59;5084746;28;20050;-73
2021/06/03 03:35:00;;;;;;;4.20;2.75;;;;;;;15.45;42.00;101694.00;5084547;28;20033;-74
2021/06/03 03:37:26;;;;;;;2.13;1.45;;;;;;;16.05;40.26;101692.63;5084664;28;20028;-69
2021/06/03 03:39:51;;;;;;;3.80;2.33;;;;;;;15.70;41.13;101688.56;5084407;28;20020;-70
2021/06/03 03:42:17;;;;;;;5.25;2.63;;;;;;;15.81;40.92;101691.97;5084655;28;20070;-72
2021/06/03 03:44:43;;;;;;;3.83;2.00;;;;;;;15.92;40.51;101693.59;5084604;28;20036;-72
2021/06/03 03:47:08;;;;;;;4.22;2.35;;;;;;;15.96;40.75;101690.94;5084401;28;20032;-71
2021/06/03 03:49:33;;;;;;;3.38;1.77;;;;;;;16.25;39.40;101678.41;5083915;28;20033;-69
2021/06/03 03:52:00;;;;;;;3.25;2.03;;;;;;;16.23;39.44;101694.16;5084452;28;20368;-70
2021/06/03 03:54:26;;;;;;;3.03;2.17;;;;;;;16.29;39.42;101703.72;5084186;28;20024;-73
2021/06/03 03:56:52;;;;;;;2.80;2.17;;;;;;;16.09;41.05;101698.69;5083961;28;20362;-72
2021/06/03 03:59:17;;;;;;;3.47;2.42;;;;;;;16.62;39.24;101702.44;5084152;28;20028;-72
2021/06/03 04:01:43;;;;;;;6.20;2.58;;;;;;;16.55;39.61;101681.53;5083880;28;20036;-73
2021/06/03 04:04:08;;;;;;;4.05;2.72;;;;;;;16.74;39.26;101678.69;5083676;28;20034;-70
2021/06/03 04:06:40;;;;;;;3.90;2.22;;;;;;;16.95;38.27;101667.00;5082476;28;20028;-72
2021/06/03 04:09:06;;;;;;;6.13;2.53;;;;;;;16.85;38.58;101668.88;5084056;28;20024;-72
2021/06/03 04:11:32;;;;;;;2.20;1.83;;;;;;;17.02;38.35;101695.75;5083493;28;20084;-73
2021/06/03 04:13:57;;;;;;;5.88;2.40;;;;;;;16.85;38.86;101682.00;5083922;28;20031;-74
2021/06/03 04:16:22;;;;;;;6.43;2.50;;;;;;;17.28;37.65;101678.78;5083707;28;20297;-71
2021/06/03 04:18:48;;;;;;;3.50;1.85;;;;;;;17.18;37.79;101689.44;5083633;28;20028;-73
2021/06/03 04:21:13;;;;;;;8.20;2.20;;;;;;;17.10;38.50;101688.69;5083231;28;20017;-73
2021/06/03 04:23:39;;;;;;;4.50;2.40;;;;;;;17.25;38.18;101679.72;5082015;28;20130;-73
2021/06/03 04:26:04;;;;;;;4.45;2.53;;;;;;;17.30;38.54;101687.50;5082357;28;20037;-74
2021/06/03 04:28:30;;;;;;;2.80;1.80;;;;;;;17.86;37.04;101688.31;5083597;28;20021;-68
2021/06/03 04:30:55;;;;;;;4.80;2.15;;;;;;;17.82;36.52;101679.63;5083445;28;20062;-65
2021/06/03 04:33:22;;;;;;;4.18;2.05;;;;;;;17.57;37.40;101690.56;5082215;28;20075;-73
2021/06/03 04:35:48;;;;;;;4.15;2.00;;;;;;;17.84;36.14;101691.81;5083298;28;20070;-71
2021/06/03 04:38:13;;;;;;;5.35;2.65;;;;;;;17.58;37.54;101685.28;5083627;28;20017;-68
2021/06/03 04:40:39;;;;;;;10.20;2.42;;;;;;;17.88;37.35;101691.75;5082474;28;20076;-69
2021/06/03 04:43:04;;;;;;;5.28;2.05;;;;;;;18.38;35.56;101698.72;5083336;28;20028;-67
2021/06/03 04:45:34;;;;;;;5.03;2.25;;;;;;;18.07;36.49;101687.91;5082145;28;20031;-72
2021/06/03 04:47:59;;;;;;;3.17;2.08;;;;;;;18.11;36.28;101700.97;5082471;28;20016;-73
2021/06/03 04:50:24;;;;;;;3.75;2.22;;;;;;;18.01;36.07;101701.16;5084178;28;20021;-75
2021/06/03 04:52:50;;;;;;;4.47;2.75;;;;;;;17.51;37.13;101695.94;5082071;28;20020;-74
2021/06/03 04:55:18;;;;;;;4.88;2.42;;;;;;;17.08;38.28;101700.94;5083404;28;20027;-73
2021/06/03 04:57:45;;;;;;;3.42;2.05;;;;;;;17.14;38.16;101689.50;5082769;28;20041;-74
2021/06/03 05:00:17;;;;;;;2.28;1.67;;;;;;;17.04;37.86;101681.75;5081625;28;20330;-74
2021/06/03 05:02:43;;;;;;;4.82;1.88;;;;;;;16.97;38.80;101698.47;5083167;28;20074;-74
2021/06/03 05:05:10;;;;;;;4.47;2.17;;;;;;;17.36;37.98;101695.28;5081526;28;20021;-71
2021/06/03 05:07:35;;;;;;;4.28;2.20;;;;;;;17.56;37.68;101715.94;5081816;28;20038;-72
2021/06/03 05:10:01;;;;;;;6.57;2.58;;;;;;;17.42;37.98;101702.19;5081625;28;20037;-72
2021/06/03 05:12:26;;;;;;;3.35;2.30;;;;;;;17.59;38.03;101709.75;5083084;28;20020;-72
2021/06/03 05:14:52;;;;;;;8.73;2.33;;;;;;;17.52;37.78;101700.28;5081890;28;20119;-72
2021/06/03 05:17:17;;;;;;;9.77;3.85;;;;;;;17.19;38.39;101698.16;5083017;28;20031;-72
2021/06/03 05:19:43;;;;;;;4.97;2.40;;;;;;;17.02;38.68;101695.75;5081441;28;20039;-70
2021/06/03 05:22:09;;;;;;;5.28;2.65;;;;;;;17.07;38.62;101707.06;5082959;28;20017;-71
2021/06/03 05:24:34;;;;;;;2.33;1.98;;;;;;;17.30;38.18;101704.09;5081735;28;20027;-69
2021/06/03 05:27:00;;;;;;;4.30;2.20;;;;;;;17.04;38.10;101694.88;5082742;28;20032;-65
2021/06/03 05:29:27;;;;;;;4.18;2.40;;;;;;;16.75;38.85;101705.75;5082952;28;20035;-68
2021/06/03 05:31:52;;;;;;;6.03;2.10;;;;;;;16.58;39.83;101706.88;5081194;28;20043;-69
2021/06/03 05:34:19;;;;;;;5.68;2.08;;;;;;;17.11;39.32;101700.06;5082580;28;20021;-69
2021/06/03 05:36:45;;;;;;;3.28;1.88;;;;;;;17.56;38.09;101701.94;5082642;28;20354;-67
2021/06/03 05:39:10;;;;;;;4.05;2.20;;;;;;;17.16;38.56;101704.34;5082600;28;20020;-67
2021/06/03 05:41:37;;;;;;;4.28;2.30;;;;;;;17.07;39.33;101707.94;5082834;28;20142;-71
2021/06/03 05:44:04;;;;;;;5.90;2.65;;;;;;;17.53;38.45;101704.63;5082883;28;20028;-69
2021/06/03 05:46:30;;;;;;;6.35;2.60;;;;;;;17.94;37.98;101700.41;5082829;28;20113;-70
2021/06/03 05:48:55;;;;;;;6.07;2.58;;;;;;;18.55;37.42;101706.25;5083012;28;20201;-70
2021/06/03 05:51:21;;;;;;;3.03;2.03;;;;;;;19.19;36.11;101704.84;5083853;28;20030;-68
2021/06/03 05:53:46;;;;;;;3.33;2.08;;;;;;;19.44;34.90;101706.91;5086650;28;20097;-72
2021/06/03 05:56:11;;;;;;;4.18;1.80;;;;;;;19.51;34.04;101692.66;5085267;28;20326;-66
2021/06/03 05:58:37;;;;;;;4.05;2.20;;;;;;;19.01;35.11;101699.09;5086270;28;20048;-63
2021/06/03 06:01:03;;;;;;;2.60;2.28;;;;;;;18.83;35.83;101710.91;5086375;28;20040;-62
2021/06/03 06:03:45;;;;;;;3.17;2.05;;;;;;;18.80;35.90;101706.56;5086691;28;20023;-62
2021/06/03 06:08:42;;;;;;;3.30;2.00;;;;;;;18.80;35.32;101697.84;5086509;28;20720;-68
2021/06/03 06:11:08;;;;;;;4.82;2.58;;;;;;;18.47;36.38;101692.41;5086249;28;20300;-69
2021/06/03 06:13:34;;;;;;;4.65;2.40;;;;;;;18.18;36.78;101697.34;5086303;28;20020;-69
2021/06/03 06:16:00;;;;;;;6.05;3.10;;;;;;;18.01;37.27;101698.53;5084543;28;20029;-70
2021/06/03 06:18:26;;;;;;;3.83;2.08;;;;;;;18.33;37.04;101701.44;5086266;28;20036;-69
2021/06/03 06:20:52;;;;;;;3.85;2.40;;;;;;;18.63;37.12;101698.19;5085991;28;20020;-71
2021/06/03 06:23:18;;;;;;;3.28;2.50;;;;;;;19.18;35.59;101689.97;5086202;28;20080;-70
2021/06/03 06:25:44;;;;;;;5.45;2.20;;;;;;;19.57;34.92;101692.50;5086256;28;20074;-71
2021/06/03 06:28:11;;;;;;;6.68;1.90;;;;;;;20.15;33.16;101700.69;5086068;28;20040;-69
2021/06/03 06:30:36;;;;;;;3.92;2.42;;;;;;;19.67;34.21;101697.53;5085943;28;20021;-71
2021/06/03 06:33:02;;;;;;;3.85;1.67;;;;;;;19.85;33.38;101690.03;5086025;28;20102;-68
2021/06/03 06:35:28;;;;;;;3.70;2.63;;;;;;;19.24;34.73;101692.47;5084236;28;20081;-71
2021/06/03 06:37:54;;;;;;;3.20;2.40;;;;;;;19.23;34.63;101697.75;5084637;28;20033;-71
2021/06/03 06:40:21;;;;;;;4.72;2.47;;;;;;;19.21;35.16;101695.16;5085791;28;20017;-71
2021/06/03 06:42:53;;;;;;;4.03;1.95;;;;;;;19.65;34.40;101702.84;5084351;28;20028;-70
2021/06/03 06:45:19;;;;;;;5.43;2.28;;;;;;;19.74;33.81;101703.50;5085936;28;20051;-69
2021/06/03 06:47:44;;;;;;;4.10;2.60;;;;;;;19.47;33.72;101706.84;5085620;28;20448;-70
2021/06/03 06:50:10;;;;;;;2.92;1.85;;;;;;;19.03;34.81;101697.31;5085254;28;20016;-69
2021/06/03 06:52:35;;;;;;;2.90;2.10;;;;;;;18.74;35.47;101698.81;5084300;28;20096;-70
2021/06/03 06:55:03;;;;;;;5.63;2.28;;;;;;;18.83;36.10;101711.75;5085616;28;20035;-71
2021/06/03 06:57:29;;;;;;;3.78;2.22;;;;;;;19.37;35.01;101707.94;5085285;28;20108;-69
2021/06/03 06:59:54;;;;;;;4.15;2.65;;;;;;;19.34;34.71;101713.28;5085300;28;20032;-70
2021/06/03 07:02:21;;;;;;;2.67;2.03;;;;;;;19.27;34.45;101716.06;5085033;28;20028;-70
2021/06/03 07:04:46;;;;;;;4.50;1.88;;;;;;;19.01;34.64;101708.78;5084865;28;20021;-69
2021/06/03 07:07:11;;;;;;;3.58;2.15;;;;;;;18.55;35.83;101709.75;5085161;28;20088;-70
2021/06/03 07:09:37;;;;;;;3.13;1.65;;;;;;;18.70;36.01;101703.31;5085170;28;20017;-68
2021/06/03 07:12:02;;;;;;;2.88;2.03;;;;;;;18.70;35.71;101697.16;5085001;28;20020;-70
2021/06/03 07:14:28;;;;;;;3.80;2.25;;;;;;;18.79;35.88;101714.50;5085460;28;20031;-69
2021/06/03 07:18:09;;;;;;;4.00;2.05;;;;;;;19.53;34.57;101711.94;5154022;27;20919;-69
2021/06/03 07:20:35;;;;;;;5.57;2.50;;;;;;;19.68;34.98;101702.75;5120654;28;20032;-71
2021/06/03 07:23:05;;;;;;;4.03;2.20;;;;;;;20.39;33.40;101714.94;5121233;28;20087;-70
2021/06/03 07:25:33;;;;;;;2.92;1.77;;;;;;;20.94;31.59;101697.53;5121096;28;20036;-67
2021/06/03 07:27:59;;;;;;;3.75;2.38;;;;;;;20.75;32.57;101703.31;5120923;27;20036;-69
2021/06/03 07:30:25;;;;;;;4.03;2.30;;;;;;;20.66;32.38;101720.31;5120791;28;20028;-69
2021/06/03 07:32:52;;;;;;;8.90;2.47;;;;;;;20.81;32.16;101702.28;5120764;28;20511;-70
2021/06/03 07:35:18;;;;;;;7.55;2.53;;;;;;;20.90;32.01;101709.91;5120621;28;20020;-70
2021/06/03 07:37:45;;;;;;;15.70;2.83;;;;;;;20.92;32.41;101697.56;5120880;28;20027;-70
2021/06/03 07:40:15;;;;;;;20.38;3.78;;;;;;;21.22;31.93;101701.03;5120785;28;20024;-71
2021/06/03 07:42:40;;;;;;;4.07;2.20;;;;;;;21.51;31.30;101693.91;5120796;28;20020;-71
2021/06/03 07:45:09;;;;;;;14.15;3.20;;;;;;;21.72;30.94;101688.78;5120842;28;20026;-70
2021/06/03 07:47:35;;;;;;;14.07;3.42;;;;;;;21.84;30.58;101703.41;5120744;28;20030;-70
2021/06/03 07:50:01;;;;;;;15.82;3.45;;;;;;;22.03;29.94;101699.16;5120244;28;20091;-70
2021/06/03 07:52:26;;;;;;;2.33;1.75;;;;;;;21.91;29.86;101699.63;5120771;28;20088;-72
2021/06/03 07:54:52;;;;;;;13.00;2.97;;;;;;;21.52;30.91;101704.41;5120770;28;20039;-72
2021/06/03 07:57:18;;;;;;;12.30;3.00;;;;;;;21.85;30.73;101694.53;5120413;28;20024;-69
2021/06/03 07:59:43;;;;;;;38.63;4.78;;;;;;;21.93;30.35;101708.38;5120460;28;20051;-72
2021/06/03 08:02:09;;;;;;;9.43;2.75;;;;;;;22.10;30.26;101694.53;5120229;28;20100;-72
2021/06/03 08:04:35;;;;;;;20.30;3.25;;;;;;;22.33;29.63;101695.47;5120349;27;20415;-72
2021/06/03 08:07:00;;;;;;;2.88;1.67;;;;;;;22.56;29.26;101693.69;5120428;28;20054;-70
2021/06/03 08:09:25;;;;;;;5.45;1.80;;;;;;;22.48;29.39;101699.28;5120462;28;20035;-72
2021/06/03 08:11:51;;;;;;;4.85;2.40;;;;;;;22.52;29.49;101690.28;5120031;28;20108;-72
2021/06/03 08:14:16;;;;;;;3.08;2.17;;;;;;;22.53;29.36;101676.16;5120200;28;20028;-71
2021/06/03 08:16:42;;;;;;;4.60;2.33;;;;;;;22.82;28.58;101691.84;5119827;27;20047;-71
2021/06/03 08:19:07;;;;;;;6.90;1.77;;;;;;;23.09;28.17;101682.84;5120019;28;20061;-71
2021/06/03 08:21:36;;;;;;;3.58;1.60;;;;;;;22.87;28.88;101681.06;5119573;28;20061;-68
2021/06/03 08:24:02;;;;;;;5.47;2.35;;;;;;;22.93;28.52;101686.13;5120229;28;20028;-72
2021/06/03 08:26:28;;;;;;;3.50;2.40;;;;;;;23.05;28.46;101692.72;5120100;28;20047;-71
2021/06/03 08:28:57;;;;;;;2.83;2.00;;;;;;;23.08;27.97;101682.00;5110210;28;20472;-72
2021/06/03 08:31:24;;;;;;;3.13;1.83;;;;;;;23.16;27.91;101676.38;5106173;28;20027;-72
2021/06/03 08:33:49;;;;;;;3.55;2.15;;;;;;;23.17;27.92;101680.72;5106220;28;20446;-72
2021/06/03 08:36:15;;;;;;;3.72;2.03;;;;;;;23.36;27.19;101669.34;5105879;28;20020;-69
2021/06/03 08:38:40;;;;;;;3.42;1.80;;;;;;;23.50;27.07;101668.78;5106178;28;20051;-70
2021/06/03 08:41:05;;;;;;;2.58;1.70;;;;;;;23.34;27.40;101660.63;5106054;28;20028;-70
2021/06/03 08:43:32;;;;;;;2.40;1.73;;;;;;;23.61;27.08;101655.09;5106165;28;20020;-70
2021/06/03 08:46:02;;;;;;;3.10;2.40;;;;;;;23.79;26.83;101676.41;5106233;28;20044;-67
2021/06/03 08:48:28;;;;;;;4.15;1.70;;;;;;;24.05;26.24;101698.25;5105977;28;20078;-67
2021/06/03 08:51:00;;;;;;;3.95;2.08;;;;;;;24.10;25.63;101632.59;5105461;28;20471;-62
2021/06/03 08:53:27;;;;;;;3.83;2.10;;;;;;;23.96;25.88;101671.19;5105831;28;20020;-68
2021/06/03 08:56:16;;;;;;;4.65;1.92;;;;;;;24.23;25.29;101675.34;5105868;28;20059;-66
2021/06/03 08:58:44;;;;;;;3.08;2.15;;;;;;;24.04;25.57;101683.25;5105698;28;20024;-67
2021/06/03 09:01:11;;;;;;;3.03;2.42;;;;;;;24.00;25.85;101669.28;5105517;28;20028;-68
2021/06/03 09:03:37;;;;;;;3.95;1.27;;;;;;;24.45;25.14;101664.59;5105459;28;20072;-66
2021/06/03 09:06:03;;;;;;;3.88;2.15;;;;;;;24.44;25.56;101672.63;5104902;28;20028;-67
2021/06/03 09:08:39;;;;;;;5.20;2.30;;;;;;;24.76;25.25;101673.72;5105209;28;20465;-68
2021/06/03 09:11:10;;;;;;;2.90;2.10;;;;;;;24.66;24.99;101683.09;5105299;28;20020;-67
2021/06/03 09:13:41;;;;;;;5.05;1.80;;;;;;;24.81;24.58;101659.38;5105309;28;20404;-67
2021/06/03 09:16:09;;;;;;;4.43;2.00;;;;;;;24.63;24.50;101668.16;5105119;28;20035;-68
2021/06/03 09:18:39;;;;;;;5.85;2.08;;;;;;;24.71;24.76;101666.94;5105252;28;20048;-68
2021/06/03 09:21:17;;;;;;;3.22;2.03;;;;;;;24.85;24.38;101671.56;5104989;28;20019;-65
2021/06/03 09:23:46;;;;;;;3.13;1.88;;;;;;;24.81;24.42;101660.22;5105358;28;20020;-65
2021/06/03 09:26:15;;;;;;;4.55;1.88;;;;;;;24.96;23.87;101693.19;5105268;28;20023;-68
2021/06/03 09:28:47;;;;;;;4.03;2.03;;;;;;;24.77;24.00;101663.97;5104851;28;20028;-68
2021/06/03 09:31:15;;;;;;;6.63;1.95;;;;;;;24.92;23.80;101662.38;5104984;28;20024;-67
2021/06/03 09:33:44;;;;;;;2.83;1.75;;;;;;;24.95;23.97;101659.56;5105021;28;20512;-68
2021/06/03 09:36:17;;;;;;;3.22;1.90;;;;;;;25.00;23.97;101654.91;5104656;28;20024;-66
2021/06/03 09:39:00;;;;;;;2.83;1.85;;;;;;;25.10;24.09;101643.81;5105397;28;20032;-68
2021/06/03 09:41:28;;;;;;;5.13;1.85;;;;;;;25.42;23.91;101641.28;5104400;28;20016;-65
2021/06/03 09:44:04;;;;;;;4.43;2.00;;;;;;;26.12;22.61;101642.06;5104855;28;20024;-65
2021/06/03 09:46:35;;;;;;;8.38;2.90;;;;;;;25.98;23.16;101645.50;5104916;28;20024;-70
2021/06/03 09:49:02;;;;;;;4.30;2.28;;;;;;;26.17;22.99;101642.69;5105038;28;20032;-68
2021/06/03 09:51:30;;;;;;;4.50;2.13;;;;;;;26.11;22.67;101646.56;5104479;28;20024;-66
2021/06/03 09:54:07;;;;;;;5.30;2.17;;;;;;;26.17;22.85;101642.69;5104860;28;20456;-68
2021/06/03 09:56:45;;;;;;;5.30;2.30;;;;;;;26.26;22.98;101637.81;5104580;28;20012;-66
2021/06/03 09:59:38;;;;;;;4.57;2.30;;;;;;;26.56;22.63;101635.25;5104964;28;20028;-67
2021/06/03 10:02:09;;;;;;;3.85;2.08;;;;;;;26.83;21.92;101623.06;5104649;28;20028;-71
2021/06/03 10:04:49;;;;;;;4.38;2.25;;;;;;;26.60;22.02;101627.91;5104412;28;20031;-68
2021/06/03 10:07:22;;;;;;;8.05;5.18;;;;;;;26.47;22.58;101638.44;5104735;28;20028;-70
2021/06/03 10:09:58;;;;;;;5.35;2.40;;;;;;;26.46;22.34;101645.56;5104805;28;20480;-67
2021/06/03 10:12:24;;;;;;;3.28;2.35;;;;;;;26.18;23.05;101652.38;5104675;28;20095;-67
2021/06/03 10:15:06;;;;;;;3.22;2.38;;;;;;;26.30;23.10;101649.97;5103083;28;20027;-66
2021/06/03 10:17:35;;;;;;;3.35;2.13;;;;;;;26.40;22.44;101642.38;5104208;28;20036;-69
2021/06/03 10:20:08;;;;;;;44.45;3.50;;;;;;;26.20;22.73;101657.66;5104318;28;20118;-65
2021/06/03 10:22:57;;;;;;;3.80;2.60;;;;;;;25.89;23.20;101636.22;5104437;28;20051;-66
2021/06/03 10:25:28;;;;;;;3.45;2.22;;;;;;;25.82;23.08;101642.81;5102445;28;20567;-66
2021/06/03 10:27:56;;;;;;;4.95;2.40;;;;;;;25.25;23.66;101643.03;5104528;28;20526;-66
2021/06/03 10:30:34;;;;;;;3.78;1.95;;;;;;;24.72;24.46;101642.09;5104123;28;20023;-66
2021/06/03 10:33:05;;;;;;;5.10;2.75;;;;;;;24.94;24.65;101633.94;5103906;28;20061;-66
2021/06/03 10:35:35;;;;;;;2.40;2.20;;;;;;;25.57;23.76;101622.81;5103295;28;20016;-67
2021/06/03 10:38:02;;;;;;;2.60;1.80;;;;;;;25.94;23.19;101636.81;5103507;28;20272;-67
2021/06/03 10:40:34;;;;;;;3.25;2.25;;;;;;;25.59;23.88;101655.50;5104019;28;20095;-66
2021/06/03 10:43:01;;;;;;;3.55;2.30;;;;;;;25.54;23.72;101638.94;5104139;28;20384;-67
2021/06/03 10:45:29;;;;;;;6.30;2.40;;;;;;;25.58;24.40;101629.84;5104118;28;20019;-68
2021/06/03 10:47:55;;;;;;;4.85;2.22;;;;;;;26.07;23.73;101646.81;5104078;28;20024;-66
2021/06/03 10:50:25;;;;;;;2.90;2.20;;;;;;;26.45;23.10;101633.22;5103642;28;20123;-68
2021/06/03 10:52:51;;;;;;;5.45;2.53;;;;;;;26.16;23.68;101648.09;5103641;28;20056;-66
2021/06/03 10:55:26;;;;;;;3.25;2.45;;;;;;;25.88;23.84;101658.44;5104068;28;20024;-66
2021/06/03 10:57:54;;;;;;;4.53;2.50;;;;;;;25.41;24.43;101630.75;5103923;28;20083;-66
2021/06/03 11:00:24;;;;;;;5.65;2.58;;;;;;;25.29;24.83;101621.63;5104170;28;20023;-66
2021/06/03 11:02:51;;;;;;;2.70;2.20;;;;;;;25.15;25.58;101632.94;5103731;28;20023;-66
2021/06/03 11:05:32;;;;;;;3.20;2.22;;;;;;;25.23;24.62;101621.00;5103547;28;20118;-68
2021/06/03 11:08:39;;;;;;;3.30;2.30;;;;;;;24.75;25.18;101615.38;5103877;28;20020;-69
2021/06/03 11:11:14;;;;;;;4.47;2.60;;;;;;;24.17;26.50;101614.63;5103909;28;20032;-71
2021/06/03 11:13:48;;;;;;;4.85;2.50;;;;;;;23.80;26.83;101619.81;5103836;28;20032;-68
2021/06/03 11:16:21;;;;;;;4.32;2.38;;;;;;;23.69;27.25;101618.47;5103226;28;20030;-67
2021/06/03 11:18:49;;;;;;;4.13;2.30;;;;;;;23.59;27.89;101611.88;5103557;28;20433;-67
2021/06/03 11:21:33;;;;;;;5.15;2.83;;;;;;;23.71;27.28;101611.34;5103120;28;20507;-67
2021/06/03 11:23:59;;;;;;;3.58;2.72;;;;;;;23.47;27.90;101605.31;5103701;28;20024;-67
2021/06/03 11:26:36;;;;;;;3.80;2.20;;;;;;;23.61;27.41;101604.75;5103524;28;20046;-65
2021/06/03 11:29:08;;;;;;;8.73;3.30;;;;;;;23.70;27.59;101609.63;5103900;28;20022;-67
2021/06/03 11:31:35;;;;;;;5.70;2.85;;;;;;;23.42;27.97;101618.78;5103412;28;20020;-66